Time;durP1;ratioP1;P1;durP2;ratioP2;P2;SDS_P1;SDS_P2;PMS_P1;PMS_P2;Temp;Humidity;BMP_temperature;BMP_pressure;BME280_temperature;BME280_humidity;BME280_pressure;Samples;Min_cycle;Max_cycle;Signal;HPM_P1;HPM_P2
2022/01/23 00:00:18;;;;;;;;;;;7.20;99.90;;;;;;5115684;28;20302;-85
2022/01/23 00:02:46;;;;;;;;;;;7.30;99.90;;;;;;5115803;28;19935;-85
2022/01/23 00:05:13;;;;;;;;;;;7.30;99.90;;;;;;5111913;28;20327;-85
2022/01/23 00:07:42;;;;;;;;;;;7.30;99.90;;;;;;5115342;28;19973;-85
2022/01/23 00:10:10;;;;;;;;;;;7.30;99.90;;;;;;5115167;28;20386;-85
2022/01/23 00:12:43;;;;;;;;;;;7.30;99.90;;;;;;5115325;28;19931;-85
2022/01/23 00:17:54;;;;;;;;;;;7.30;99.90;;;;;;5114766;28;19973;-85
2022/01/23 00:20:21;;;;;;;;;;;7.20;99.90;;;;;;5114521;28;19924;-85
2022/01/23 00:22:52;;;;;;;;;;;7.30;99.90;;;;;;5114496;28;19923;-85
2022/01/23 00:30:49;;;;;;;;;;;7.20;99.90;;;;;;5114907;28;19931;-85
2022/01/23 00:33:16;;;;;;;;;;;7.20;99.90;;;;;;5115216;28;19924;-85
2022/01/23 00:35:44;;;;;;;;;;;7.20;99.90;;;;;;5115180;28;19923;-86
2022/01/23 00:38:12;;;;;;;;;;;7.20;99.90;;;;;;5115113;28;19928;-85
2022/01/23 00:40:40;;;;;;;;;;;7.30;99.90;;;;;;5114883;28;19927;-85
2022/01/23 00:43:14;;;;;;;;;;;7.30;99.90;;;;;;5114993;28;19946;-85
2022/01/23 00:45:45;;;;;;;;;;;7.30;99.90;;;;;;5115183;28;19985;-85
2022/01/23 00:48:13;;;;;;;;;;;7.30;99.90;;;;;;5114737;28;20336;-85
2022/01/23 00:50:41;;;;;;;;;;;7.30;99.90;;;;;;5115048;28;19934;-85
2022/01/23 00:53:09;;;;;;;;;;;7.30;99.90;;;;;;5114758;28;19956;-85
2022/01/23 00:55:38;;;;;;;;;;;7.30;99.90;;;;;;5114877;28;19930;-85
2022/01/23 00:58:04;;;;;;;;;;;7.20;99.90;;;;;;5114985;28;19924;-85
2022/01/23 01:00:31;;;;;;;;;;;7.20;99.90;;;;;;5114752;28;19924;-85
2022/01/23 01:02:59;;;;;;;;;;;7.20;99.90;;;;;;5115017;28;19976;-85
2022/01/23 01:05:26;;;;;;;;;;;7.20;99.90;;;;;;5114844;28;19923;-85
2022/01/23 01:07:53;;;;;;;;;;;7.20;99.90;;;;;;5114473;28;19924;-85
2022/01/23 01:10:24;;;;;;;;;;;7.00;99.90;;;;;;5114597;28;19982;-85
2022/01/23 01:12:57;;;;;;;;;;;7.20;99.90;;;;;;5114505;28;19963;-85
2022/01/23 01:15:53;;;;;;;;;;;7.20;99.90;;;;;;5114353;28;19930;-85
2022/01/23 01:32:03;;;;;;;;;;;7.20;99.90;;;;;;5114346;28;20053;-85
2022/01/23 01:34:37;;;;;;;;;;;7.20;99.90;;;;;;5114204;28;19927;-85
2022/01/23 01:37:04;;;;;;;;;;;7.20;99.90;;;;;;5114349;28;20378;-85
2022/01/23 01:39:31;;;;;;;;;;;7.20;99.90;;;;;;5114201;28;19924;-85
2022/01/23 01:41:58;;;;;;;;;;;7.10;99.90;;;;;;5114209;28;20331;-85
2022/01/23 01:44:27;;;;;;;;;;;7.10;99.90;;;;;;5114394;28;19969;-85
2022/01/23 01:46:54;;;;;;;;;;;7.20;99.90;;;;;;5114409;28;19967;-85
2022/01/23 01:49:27;;;;;;;;;;;7.30;99.90;;;;;;5114456;28;19927;-85
2022/01/23 01:51:54;;;;;;;;;;;7.10;99.90;;;;;;5114389;28;19931;-86
2022/01/23 01:54:22;;;;;;;;;;;7.20;99.90;;;;;;5113915;28;19969;-85
2022/01/23 01:56:53;;;;;;;;;;;7.10;99.90;;;;;;5114231;28;19928;-85
2022/01/23 01:59:46;;;;;;;;;;;7.10;99.90;;;;;;5114524;28;19931;-85
2022/01/23 02:10:28;;;;;;;;;;;7.00;99.90;;;;;;5117287;28;20293;-84
2022/01/23 02:52:00;;;;;;;;;;;7.10;99.90;;;;;;5117021;28;19937;-85
2022/01/23 02:54:46;;;;;;;;;;;7.10;99.90;;;;;;5117221;28;19924;-84
2022/01/23 02:57:20;;;;;;;;;;;7.10;99.90;;;;;;5117254;28;19924;-85
2022/01/23 02:59:49;;;;;;;;;;;7.10;99.90;;;;;;5116695;28;19931;-84
2022/01/23 03:02:28;;;;;;;;;;;7.10;99.90;;;;;;5116465;28;19973;-85
2022/01/23 03:05:00;;;;;;;;;;;7.10;99.90;;;;;;5116832;28;19967;-85
2022/01/23 03:07:50;;;;;;;;;;;7.10;99.90;;;;;;5116490;28;20400;-85
2022/01/23 03:10:22;;;;;;;;;;;7.10;99.90;;;;;;5116832;28;19946;-85
2022/01/23 03:15:55;;;;;;;;;;;7.10;99.90;;;;;;5115593;28;19931;-84
2022/01/23 03:24:17;;;;;;;;;;;6.80;99.90;;;;;;5116426;28;19957;-84
2022/01/23 03:29:51;;;;;;;;;;;7.00;99.90;;;;;;5110774;28;19924;-84
2022/01/23 03:32:23;;;;;;;;;;;7.10;99.90;;;;;;5111529;28;19924;-84
2022/01/23 03:34:50;;;;;;;;;;;7.00;99.90;;;;;;5116173;28;20021;-84
2022/01/23 03:37:17;;;;;;;;;;;7.00;99.90;;;;;;5116189;28;19924;-84
2022/01/23 03:39:44;;;;;;;;;;;7.00;99.90;;;;;;5115515;28;19969;-85
2022/01/23 03:42:12;;;;;;;;;;;7.00;99.90;;;;;;5115712;28;20366;-85
2022/01/23 03:44:45;;;;;;;;;;;7.00;99.90;;;;;;5115664;28;20297;-85
2022/01/23 03:47:21;;;;;;;;;;;7.00;99.90;;;;;;5116103;28;19924;-84
2022/01/23 03:49:48;;;;;;;;;;;7.00;99.90;;;;;;5115995;28;19924;-84
2022/01/23 03:52:15;;;;;;;;;;;7.00;99.90;;;;;;5115802;28;19924;-84
2022/01/23 03:54:42;;;;;;;;;;;6.90;99.90;;;;;;5115505;28;20300;-84
2022/01/23 03:57:09;;;;;;;;;;;6.90;99.90;;;;;;5115825;28;19923;-84
2022/01/23 03:59:38;;;;;;;;;;;6.90;99.90;;;;;;5115517;28;20446;-84
2022/01/23 04:02:05;;;;;;;;;;;6.90;99.90;;;;;;5115062;28;19969;-83
2022/01/23 04:04:39;;;;;;;;;;;6.90;99.90;;;;;;5115575;28;20003;-85
2022/01/23 04:07:07;;;;;;;;;;;7.00;99.90;;;;;;5115703;28;19978;-84
2022/01/23 04:09:34;;;;;;;;;;;7.00;99.90;;;;;;5115297;28;19924;-84
2022/01/23 04:12:01;;;;;;;;;;;6.90;99.90;;;;;;5115577;28;19935;-85
2022/01/23 04:14:30;;;;;;;;;;;6.90;99.90;;;;;;5115403;28;20417;-85
2022/01/23 04:20:00;;;;;;;;;;;7.00;99.90;;;;;;5093852;28;19923;-85
2022/01/23 05:01:07;;;;;;;;;;;6.80;99.90;;;;;;5051165;28;19924;-85
2022/01/23 05:04:06;;;;;;;;;;;6.90;99.90;;;;;;5051354;28;19968;-86
2022/01/23 05:06:42;;;;;;;;;;;6.90;99.90;;;;;;5093617;28;19927;-85
2022/01/23 05:09:09;;;;;;;;;;;6.90;99.90;;;;;;5114963;28;20018;-85
2022/01/23 05:11:37;;;;;;;;;;;6.90;99.90;;;;;;5114792;28;19923;-85
2022/01/23 05:14:04;;;;;;;;;;;6.90;99.90;;;;;;5114462;28;20330;-85
2022/01/23 05:16:32;;;;;;;;;;;6.90;99.90;;;;;;5114322;28;19973;-85
2022/01/23 05:18:59;;;;;;;;;;;6.80;99.90;;;;;;5114699;28;19931;-85
2022/01/23 05:21:51;;;;;;;;;;;6.90;99.90;;;;;;5115041;28;20012;-85
2022/01/23 05:24:23;;;;;;;;;;;6.90;99.90;;;;;;5114490;28;19924;-85
2022/01/23 05:26:50;;;;;;;;;;;6.80;99.90;;;;;;5114370;28;19923;-85
2022/01/23 05:29:17;;;;;;;;;;;6.80;99.90;;;;;;5114682;28;19924;-85
2022/01/23 05:31:44;;;;;;;;;;;6.80;99.90;;;;;;5114651;28;19931;-85
2022/01/23 05:34:11;;;;;;;;;;;6.80;99.90;;;;;;5114705;28;20023;-85
2022/01/23 05:36:38;;;;;;;;;;;6.80;99.90;;;;;;5114556;28;19970;-85
2022/01/23 05:39:04;;;;;;;;;;;6.80;99.90;;;;;;5116878;28;19955;-85
2022/01/23 05:41:33;;;;;;;;;;;6.80;99.90;;;;;;5118349;28;19981;-85
2022/01/23 05:44:00;;;;;;;;;;;6.80;99.90;;;;;;5118226;28;19966;-85
2022/01/23 05:46:27;;;;;;;;;;;6.80;99.90;;;;;;5118078;28;19970;-85
2022/01/23 05:48:54;;;;;;;;;;;6.90;99.90;;;;;;5118090;28;19969;-84
2022/01/23 05:51:20;;;;;;;;;;;6.80;99.90;;;;;;5118328;28;19945;-85
2022/01/23 05:53:48;;;;;;;;;;;7.10;99.90;;;;;;5118272;28;19923;-85
2022/01/23 05:56:16;;;;;;;;;;;6.70;99.90;;;;;;5117951;28;19924;-85
2022/01/23 05:58:45;;;;;;;;;;;6.70;99.90;;;;;;5118156;28;19928;-85
2022/01/23 06:01:11;;;;;;;;;;;7.00;99.90;;;;;;5117722;28;19927;-85
2022/01/23 06:03:38;;;;;;;;;;;6.80;99.90;;;;;;5118104;28;19981;-85
2022/01/23 06:06:05;;;;;;;;;;;6.80;99.90;;;;;;5118098;28;19976;-85
2022/01/23 06:08:32;;;;;;;;;;;6.70;99.90;;;;;;5117973;28;19928;-85
2022/01/23 06:10:59;;;;;;;;;;;6.70;99.90;;;;;;5116375;28;19927;-85
2022/01/23 06:13:26;;;;;;;;;;;6.70;99.90;;;;;;5115708;28;19923;-85
2022/01/23 06:15:54;;;;;;;;;;;6.70;99.90;;;;;;5118047;28;19969;-85
2022/01/23 06:18:21;;;;;;;;;;;6.70;99.90;;;;;;5117622;28;19928;-85
2022/01/23 06:20:48;;;;;;;;;;;6.70;99.90;;;;;;5117641;28;20389;-85
2022/01/23 06:23:15;;;;;;;;;;;6.60;99.90;;;;;;5117382;28;20330;-85
2022/01/23 06:25:42;;;;;;;;;;;6.80;99.90;;;;;;5117339;28;20389;-85
2022/01/23 06:28:10;;;;;;;;;;;6.70;99.90;;;;;;5117340;28;19970;-85
2022/01/23 06:30:37;;;;;;;;;;;6.70;99.90;;;;;;5117649;28;19924;-85
2022/01/23 06:33:06;;;;;;;;;;;6.60;99.90;;;;;;5117212;28;19977;-85
2022/01/23 06:35:33;;;;;;;;;;;6.80;99.90;;;;;;5117177;28;19924;-85
2022/01/23 06:37:59;;;;;;;;;;;6.70;99.90;;;;;;5117187;28;19963;-85
2022/01/23 06:40:26;;;;;;;;;;;6.70;99.90;;;;;;5117475;28;19966;-85
2022/01/23 06:42:53;;;;;;;;;;;6.70;99.90;;;;;;5117457;28;19976;-85
2022/01/23 06:45:20;;;;;;;;;;;6.60;99.90;;;;;;5117605;28;20353;-85
2022/01/23 06:47:46;;;;;;;;;;;6.50;99.90;;;;;;5117523;28;19953;-84
2022/01/23 06:50:15;;;;;;;;;;;6.60;99.90;;;;;;5116925;28;20360;-86
2022/01/23 06:52:41;;;;;;;;;;;6.60;99.90;;;;;;5116933;28;19928;-85
2022/01/23 06:55:08;;;;;;;;;;;6.60;99.90;;;;;;5116832;28;19931;-85
2022/01/23 06:57:35;;;;;;;;;;;6.60;99.90;;;;;;5117007;28;19959;-85
2022/01/23 07:00:02;;;;;;;;;;;6.60;99.90;;;;;;5116880;28;20359;-85
2022/01/23 07:02:29;;;;;;;;;;;6.50;99.90;;;;;;5116371;28;20377;-85
2022/01/23 07:04:56;;;;;;;;;;;6.50;99.90;;;;;;5116842;28;19967;-85
2022/01/23 07:07:24;;;;;;;;;;;6.60;99.90;;;;;;5116646;28;19927;-85
2022/01/23 07:09:51;;;;;;;;;;;6.50;99.90;;;;;;5116482;28;20505;-85
2022/01/23 07:12:18;;;;;;;;;;;6.50;99.90;;;;;;5116366;28;19971;-85
2022/01/23 07:14:44;;;;;;;;;;;6.50;99.90;;;;;;5116103;28;20410;-85
2022/01/23 07:17:11;;;;;;;;;;;6.60;99.90;;;;;;5115892;28;19971;-85
2022/01/23 07:19:38;;;;;;;;;;;6.50;99.90;;;;;;5115832;28;20741;-85
2022/01/23 07:22:05;;;;;;;;;;;6.80;99.90;;;;;;5115666;28;19986;-86
2022/01/23 07:24:33;;;;;;;;;;;6.60;99.90;;;;;;5115417;28;19935;-85
2022/01/23 07:27:01;;;;;;;;;;;6.60;99.90;;;;;;5116243;28;20289;-85
2022/01/23 07:29:28;;;;;;;;;;;6.50;99.90;;;;;;5116391;28;19923;-85
2022/01/23 07:32:00;;;;;;;;;;;6.50;99.90;;;;;;5116302;28;19924;-84
2022/01/23 07:34:27;;;;;;;;;;;6.70;99.90;;;;;;5115940;28;19924;-85
2022/01/23 07:36:54;;;;;;;;;;;6.50;99.90;;;;;;5116002;28;19973;-85
2022/01/23 07:39:21;;;;;;;;;;;6.60;99.90;;;;;;5115992;28;19985;-85
2022/01/23 07:41:49;;;;;;;;;;;6.50;99.90;;;;;;5115533;28;19975;-85
2022/01/23 07:44:16;;;;;;;;;;;6.50;99.90;;;;;;5116401;28;19924;-85
2022/01/23 07:46:42;;;;;;;;;;;6.50;99.90;;;;;;5115853;28;19923;-85
2022/01/23 07:49:10;;;;;;;;;;;6.50;99.90;;;;;;5116359;28;19923;-85
2022/01/23 07:51:36;;;;;;;;;;;6.50;99.90;;;;;;5115730;28;19977;-84
2022/01/23 07:54:04;;;;;;;;;;;6.50;99.90;;;;;;5115803;28;20035;-84
2022/01/23 07:56:30;;;;;;;;;;;6.50;99.90;;;;;;5115885;28;19963;-85
2022/01/23 07:58:59;;;;;;;;;;;6.60;99.90;;;;;;5115820;28;19969;-85
2022/01/23 08:01:25;;;;;;;;;;;6.50;99.90;;;;;;5114701;28;19967;-85
2022/01/23 08:03:52;;;;;;;;;;;6.50;99.90;;;;;;5111596;28;19997;-85
2022/01/23 08:06:21;;;;;;;;;;;6.50;99.90;;;;;;5114489;28;19967;-84
2022/01/23 08:08:48;;;;;;;;;;;6.50;99.90;;;;;;5115394;28;19923;-85
2022/01/23 08:11:14;;;;;;;;;;;6.50;99.90;;;;;;5115444;28;19930;-84
2022/01/23 08:13:41;;;;;;;;;;;6.40;99.90;;;;;;5115672;28;20332;-85
2022/01/23 08:16:10;;;;;;;;;;;6.50;99.90;;;;;;5115350;28;19928;-85
2022/01/23 08:18:37;;;;;;;;;;;6.50;99.90;;;;;;5115392;28;19955;-86
2022/01/23 08:21:04;;;;;;;;;;;6.40;99.90;;;;;;5115181;28;20349;-85
2022/01/23 08:23:31;;;;;;;;;;;6.50;99.90;;;;;;5115272;28;19924;-85
2022/01/23 08:25:58;;;;;;;;;;;6.60;99.90;;;;;;5115156;28;19968;-85
2022/01/23 08:28:25;;;;;;;;;;;6.60;99.90;;;;;;5115400;28;19971;-85
2022/01/23 08:30:52;;;;;;;;;;;6.40;99.90;;;;;;5114898;28;19975;-84
2022/01/23 08:33:20;;;;;;;;;;;6.60;99.90;;;;;;5115123;28;20006;-84
2022/01/23 08:35:47;;;;;;;;;;;6.40;99.90;;;;;;5114977;28;19970;-84
2022/01/23 08:38:14;;;;;;;;;;;6.30;99.90;;;;;;5115128;28;19923;-84
2022/01/23 08:41:49;;;;;;;;;;;6.30;99.90;;;;;;5114717;28;19946;-84
2022/01/23 08:43:35;;;;;;;;;;;6.30;99.90;;;;;;5114644;28;19930;-85
2022/01/23 08:46:02;;;;;;;;;;;6.30;99.90;;;;;;5115281;28;19959;-84
2022/01/23 08:48:30;;;;;;;;;;;6.30;99.90;;;;;;5114768;28;19967;-85
2022/01/23 08:50:57;;;;;;;;;;;6.40;99.90;;;;;;5115187;28;19967;-84
2022/01/23 08:53:24;;;;;;;;;;;6.50;99.90;;;;;;5115148;28;19993;-84
2022/01/23 08:55:51;;;;;;;;;;;6.50;99.90;;;;;;5114814;28;19924;-84
2022/01/23 08:58:18;;;;;;;;;;;6.50;99.90;;;;;;5114806;28;19967;-84
2022/01/23 09:00:44;;;;;;;;;;;6.40;99.90;;;;;;5114613;28;19974;-84
2022/01/23 09:03:12;;;;;;;;;;;6.40;99.90;;;;;;5114466;28;20334;-84
2022/01/23 09:05:40;;;;;;;;;;;6.40;99.90;;;;;;5115056;28;19923;-84
2022/01/23 09:08:07;;;;;;;;;;;6.50;99.90;;;;;;5114714;28;19924;-85
2022/01/23 09:10:40;;;;;;;;;;;6.50;99.90;;;;;;5114377;28;20405;-84
2022/01/23 09:13:11;;;;;;;;;;;6.40;99.90;;;;;;5115579;28;20331;-84
2022/01/23 09:15:38;;;;;;;;;;;6.40;99.90;;;;;;5118590;28;19970;-84
2022/01/23 09:18:05;;;;;;;;;;;6.40;99.90;;;;;;5118443;28;19969;-84
2022/01/23 09:20:32;;;;;;;;;;;6.50;99.90;;;;;;5118935;28;19967;-84
2022/01/23 09:23:00;;;;;;;;;;;6.40;99.90;;;;;;5118877;28;20393;-84
2022/01/23 09:25:27;;;;;;;;;;;6.40;99.90;;;;;;5118843;28;19927;-85
2022/01/23 09:27:54;;;;;;;;;;;6.50;99.90;;;;;;5118586;28;20370;-84
2022/01/23 09:30:21;;;;;;;;;;;6.50;99.90;;;;;;5118519;28;20355;-85
2022/01/23 09:32:49;;;;;;;;;;;6.40;99.90;;;;;;5118215;28;19931;-85
2022/01/23 09:35:16;;;;;;;;;;;6.50;99.90;;;;;;5118107;28;19975;-85
2022/01/23 09:37:43;;;;;;;;;;;6.30;99.90;;;;;;5117962;28;19924;-85
2022/01/23 09:40:12;;;;;;;;;;;6.30;99.90;;;;;;5118351;28;19973;-84
2022/01/23 09:42:43;;;;;;;;;;;6.30;99.90;;;;;;5117895;28;19977;-85
2022/01/23 09:45:11;;;;;;;;;;;6.60;99.90;;;;;;5117825;28;19924;-85
2022/01/23 09:47:38;;;;;;;;;;;6.50;99.90;;;;;;5118001;28;20014;-84
2022/01/23 09:50:05;;;;;;;;;;;6.50;99.90;;;;;;5117354;28;20290;-84
2022/01/23 09:52:34;;;;;;;;;;;6.40;99.90;;;;;;5119066;28;19924;-86
2022/01/23 09:55:06;;;;;;;;;;;6.40;99.90;;;;;;5118000;28;19977;-85
2022/01/23 09:57:36;;;;;;;;;;;6.40;99.90;;;;;;5118267;28;19923;-84
2022/01/23 10:00:05;;;;;;;;;;;6.40;99.90;;;;;;5111148;28;19977;-85
2022/01/23 10:02:33;;;;;;;;;;;6.30;99.90;;;;;;5097493;28;19928;-84
2022/01/23 10:04:59;;;;;;;;;;;6.40;99.90;;;;;;5097832;28;19931;-84
2022/01/23 10:07:27;;;;;;;;;;;6.50;99.90;;;;;;5097225;28;19924;-85
2022/01/23 10:09:58;;;;;;;;;;;6.40;99.90;;;;;;5097824;28;19989;-85
2022/01/23 10:12:26;;;;;;;;;;;6.60;99.90;;;;;;5097445;28;19936;-85
2022/01/23 10:14:55;;;;;;;;;;;6.40;99.90;;;;;;5111547;28;20275;-84
2022/01/23 10:17:21;;;;;;;;;;;6.40;99.90;;;;;;5117887;28;19930;-86
2022/01/23 10:19:48;;;;;;;;;;;6.40;99.90;;;;;;5117471;28;19931;-85
2022/01/23 10:22:15;;;;;;;;;;;6.50;99.90;;;;;;5117199;28;20416;-84
2022/01/23 10:24:42;;;;;;;;;;;6.60;99.90;;;;;;5116975;28;20018;-85
2022/01/23 10:27:09;;;;;;;;;;;6.40;99.90;;;;;;5117551;28;19923;-85
2022/01/23 10:29:37;;;;;;;;;;;6.60;99.90;;;;;;5117576;28;19924;-85
2022/01/23 10:32:07;;;;;;;;;;;6.70;99.90;;;;;;5117431;28;19931;-85
2022/01/23 10:34:45;;;;;;;;;;;6.50;99.90;;;;;;5117165;28;19968;-85
2022/01/23 10:37:12;;;;;;;;;;;6.40;99.90;;;;;;5117352;28;19954;-84
2022/01/23 10:39:40;;;;;;;;;;;6.40;99.90;;;;;;5117399;28;19927;-84
2022/01/23 10:42:25;;;;;;;;;;;6.10;99.90;;;;;;5117054;28;19923;-85
2022/01/23 10:47:48;;;;;;;;;;;6.20;99.90;;;;;;5117393;28;20010;-84
2022/01/23 10:50:14;;;;;;;;;;;6.20;99.90;;;;;;5117975;28;19971;-84
2022/01/23 10:52:45;;;;;;;;;;;6.20;99.90;;;;;;5117032;28;19931;-84
2022/01/23 10:55:25;;;;;;;;;;;6.20;99.90;;;;;;5117184;28;19928;-85
2022/01/23 10:57:53;;;;;;;;;;;6.20;99.90;;;;;;5117016;28;19981;-85
2022/01/23 11:00:22;;;;;;;;;;;6.30;99.90;;;;;;5117320;28;19928;-84
2022/01/23 11:02:50;;;;;;;;;;;6.10;99.90;;;;;;5116208;28;19924;-85
2022/01/23 11:05:18;;;;;;;;;;;6.00;99.90;;;;;;5117016;28;19963;-85
2022/01/23 11:07:45;;;;;;;;;;;5.90;99.90;;;;;;5116314;28;20343;-84
2022/01/23 11:10:14;;;;;;;;;;;5.90;99.90;;;;;;5116333;28;19946;-84
2022/01/23 11:18:35;;;;;;;;;;;6.00;99.90;;;;;;5116710;28;19935;-84
2022/01/23 11:21:13;;;;;;;;;;;6.00;99.90;;;;;;5116662;28;19923;-85
2022/01/23 11:23:40;;;;;;;;;;;6.10;99.90;;;;;;5116546;28;19924;-85
2022/01/23 11:26:09;;;;;;;;;;;6.00;99.90;;;;;;5115954;28;19924;-84
2022/01/23 11:28:37;;;;;;;;;;;5.90;99.90;;;;;;5117519;28;19927;-85
2022/01/23 11:31:05;;;;;;;;;;;5.90;99.90;;;;;;5116073;28;20444;-85
2022/01/23 11:33:31;;;;;;;;;;;5.90;99.90;;;;;;5115894;28;20332;-86
2022/01/23 11:36:01;;;;;;;;;;;5.90;99.90;;;;;;5115367;28;19992;-85
2022/01/23 11:38:28;;;;;;;;;;;6.10;99.90;;;;;;5116424;28;19928;-85
2022/01/23 11:54:58;;;;;;;;;;;6.30;99.90;;;;;;5115735;28;20006;-84
2022/01/23 11:57:46;;;;;;;;;;;6.60;99.90;;;;;;5114826;28;20336;-84
2022/01/23 12:00:17;;;;;;;;;;;6.70;99.90;;;;;;5108536;28;19963;-85
2022/01/23 12:02:44;;;;;;;;;;;6.80;99.90;;;;;;5115852;28;19978;-85
2022/01/23 12:05:32;;;;;;;;;;;6.80;99.90;;;;;;5115430;28;19931;-85
2022/01/23 12:08:19;;;;;;;;;;;6.60;99.90;;;;;;5115187;28;19923;-86
2022/01/23 12:11:16;;;;;;;;;;;6.60;99.90;;;;;;5115655;28;19934;-85
2022/01/23 12:13:57;;;;;;;;;;;6.50;99.90;;;;;;5115237;28;19923;-85
2022/01/23 12:16:49;;;;;;;;;;;6.50;99.90;;;;;;5115258;28;19923;-86
2022/01/23 12:19:17;;;;;;;;;;;6.60;99.90;;;;;;5115638;28;19924;-86
2022/01/23 12:21:45;;;;;;;;;;;6.50;99.90;;;;;;5115705;28;19991;-86
2022/01/23 12:24:15;;;;;;;;;;;6.50;99.90;;;;;;5115780;28;19931;-84
2022/01/23 12:26:42;;;;;;;;;;;6.60;99.90;;;;;;5115027;28;20445;-84
2022/01/23 12:29:12;;;;;;;;;;;6.40;99.90;;;;;;5115218;28;19924;-85
2022/01/23 12:31:40;;;;;;;;;;;6.60;99.90;;;;;;5115543;28;19927;-84
2022/01/23 12:34:07;;;;;;;;;;;6.70;99.90;;;;;;5116118;28;20297;-84
2022/01/23 12:36:35;;;;;;;;;;;6.70;99.90;;;;;;5115082;28;19928;-84
2022/01/23 12:39:18;;;;;;;;;;;6.60;99.90;;;;;;5115376;28;19969;-84
2022/01/23 12:41:55;;;;;;;;;;;6.60;99.90;;;;;;5115295;28;20026;-84
2022/01/23 12:44:34;;;;;;;;;;;6.60;99.90;;;;;;5118034;28;20374;-85
2022/01/23 12:47:02;;;;;;;;;;;6.70;99.90;;;;;;5119121;28;19928;-84
2022/01/23 12:49:30;;;;;;;;;;;6.60;99.90;;;;;;5106732;28;19924;-85
2022/01/23 12:52:18;;;;;;;;;;;5.40;99.90;;;;;;5117898;28;19977;-85
2022/01/23 12:54:57;;;;;;;;;;;6.50;99.90;;;;;;5115245;28;19924;-85
2022/01/23 12:57:31;;;;;;;;;;;6.70;99.90;;;;;;5115229;28;19931;-83
2022/01/23 13:00:00;;;;;;;;;;;6.50;99.90;;;;;;5115257;28;19931;-83
2022/01/23 13:02:34;;;;;;;;;;;6.30;99.90;;;;;;5114632;28;19924;-84
2022/01/23 13:05:00;;;;;;;;;;;6.70;99.90;;;;;;5115617;28;19928;-85
2022/01/23 13:07:38;;;;;;;;;;;6.50;99.90;;;;;;5114810;28;19924;-84
2022/01/23 13:10:21;;;;;;;;;;;6.60;99.90;;;;;;5115767;28;19931;-84
2022/01/23 13:12:53;;;;;;;;;;;6.60;99.90;;;;;;5115240;28;19928;-84
2022/01/23 13:18:11;;;;;;;;;;;6.50;99.90;;;;;;5111635;28;20559;-84
2022/01/23 13:26:40;;;;;;;;;;;6.50;99.90;;;;;;5115326;28;20305;-84
2022/01/23 13:31:56;;;;;;;;;;;6.30;99.90;;;;;;5114756;28;19931;-85
2022/01/23 13:34:24;;;;;;;;;;;6.30;99.90;;;;;;5117525;28;19931;-83
2022/01/23 13:36:55;;;;;;;;;;;6.40;99.90;;;;;;5115268;28;19930;-84
2022/01/23 13:39:23;;;;;;;;;;;6.30;99.90;;;;;;5114562;28;19947;-84
2022/01/23 13:42:01;;;;;;;;;;;6.30;99.90;;;;;;5114335;28;19966;-84
2022/01/23 13:53:10;;;;;;;;;;;6.30;99.90;;;;;;5114889;28;19927;-84
2022/01/23 13:58:36;;;;;;;;;;;6.40;99.90;;;;;;5114811;28;19977;-84
2022/01/23 14:01:14;;;;;;;;;;;6.50;99.90;;;;;;5117803;28;19951;-84
2022/01/23 14:03:41;;;;;;;;;;;6.50;99.90;;;;;;5118146;28;19924;-84
2022/01/23 14:06:08;;;;;;;;;;;6.40;99.90;;;;;;5118032;28;19928;-83
2022/01/23 14:08:35;;;;;;;;;;;6.60;99.90;;;;;;5118345;28;19992;-84
2022/01/23 14:11:02;;;;;;;;;;;6.60;99.90;;;;;;5118163;28;19992;-83
2022/01/23 14:13:30;;;;;;;;;;;6.60;99.90;;;;;;5118337;28;19977;-85
2022/01/23 14:15:57;;;;;;;;;;;6.70;99.90;;;;;;5118126;28;19928;-84
2022/01/23 14:18:24;;;;;;;;;;;6.70;99.90;;;;;;5118472;28;20392;-84
2022/01/23 14:20:56;;;;;;;;;;;6.80;99.90;;;;;;5119552;28;20030;-84
2022/01/23 14:23:23;;;;;;;;;;;6.70;99.90;;;;;;5117393;28;19927;-84
2022/01/23 14:25:51;;;;;;;;;;;6.80;99.90;;;;;;5117775;28;19942;-84
2022/01/23 14:28:20;;;;;;;;;;;6.60;99.90;;;;;;5117212;28;19924;-84
2022/01/23 14:30:49;;;;;;;;;;;6.50;99.90;;;;;;5116990;28;19992;-84
2022/01/23 14:33:17;;;;;;;;;;;6.70;99.90;;;;;;5117189;28;19977;-84
2022/01/23 14:35:44;;;;;;;;;;;6.60;99.90;;;;;;5118040;28;19967;-85
2022/01/23 14:38:12;;;;;;;;;;;6.60;99.90;;;;;;5117243;28;19984;-85
2022/01/23 14:40:40;;;;;;;;;;;6.70;99.90;;;;;;5117753;28;19969;-84
2022/01/23 14:43:08;;;;;;;;;;;6.70;99.90;;;;;;5117585;28;19927;-85
2022/01/23 14:45:37;;;;;;;;;;;6.00;99.90;;;;;;5117827;28;19924;-84
2022/01/23 14:48:06;;;;;;;;;;;6.50;99.90;;;;;;5118486;28;19924;-84
2022/01/23 14:50:35;;;;;;;;;;;6.50;99.90;;;;;;5117683;28;20435;-85
2022/01/23 14:53:08;;;;;;;;;;;5.90;99.90;;;;;;5117229;28;20022;-85
2022/01/23 14:55:35;;;;;;;;;;;6.40;99.90;;;;;;5117246;28;19923;-84
2022/01/23 14:58:03;;;;;;;;;;;6.40;99.90;;;;;;5117512;28;19924;-84
2022/01/23 15:00:30;;;;;;;;;;;6.60;99.90;;;;;;5116990;28;19924;-85
2022/01/23 15:02:57;;;;;;;;;;;6.70;99.90;;;;;;5118117;28;19935;-85
2022/01/23 15:05:30;;;;;;;;;;;6.60;99.90;;;;;;5118664;28;19924;-84
2022/01/23 15:07:57;;;;;;;;;;;6.60;99.90;;;;;;5117367;28;19928;-84
2022/01/23 15:10:24;;;;;;;;;;;6.70;99.90;;;;;;5116655;28;19927;-84
2022/01/23 15:12:51;;;;;;;;;;;6.60;99.90;;;;;;5116870;28;19924;-85
2022/01/23 15:15:18;;;;;;;;;;;6.70;99.90;;;;;;5116358;28;20389;-84
2022/01/23 15:17:44;;;;;;;;;;;6.60;99.90;;;;;;5116361;28;19953;-84
2022/01/23 15:20:12;;;;;;;;;;;6.60;99.90;;;;;;5116451;28;19923;-84
2022/01/23 15:22:40;;;;;;;;;;;6.60;99.90;;;;;;5116459;28;20029;-84
2022/01/23 15:25:09;;;;;;;;;;;6.60;99.90;;;;;;5116137;28;20026;-85
2022/01/23 15:27:36;;;;;;;;;;;6.50;99.90;;;;;;5116951;28;20385;-84
2022/01/23 15:30:03;;;;;;;;;;;6.50;99.90;;;;;;5116088;28;20279;-84
2022/01/23 15:32:30;;;;;;;;;;;6.50;99.90;;;;;;5116200;28;19923;-85
2022/01/23 15:34:56;;;;;;;;;;;6.50;99.90;;;;;;5116468;28;19923;-84
2022/01/23 15:37:23;;;;;;;;;;;6.40;99.90;;;;;;5115901;28;20506;-86
2022/01/23 15:39:51;;;;;;;;;;;6.40;99.90;;;;;;5115819;28;20431;-85
2022/01/23 15:42:19;;;;;;;;;;;6.40;99.90;;;;;;5116219;28;19930;-85
2022/01/23 15:44:45;;;;;;;;;;;6.30;99.90;;;;;;5116361;28;19923;-85
2022/01/23 15:47:12;;;;;;;;;;;6.20;99.90;;;;;;5114833;28;19928;-86
2022/01/23 15:49:39;;;;;;;;;;;6.20;99.90;;;;;;5095644;28;19924;-85
2022/01/23 15:52:06;;;;;;;;;;;6.20;99.90;;;;;;5096056;28;19924;-85
2022/01/23 15:54:34;;;;;;;;;;;6.20;99.90;;;;;;5095330;28;19924;-84
2022/01/23 15:57:03;;;;;;;;;;;6.60;99.90;;;;;;5095130;28;19955;-84
2022/01/23 15:59:29;;;;;;;;;;;6.00;99.90;;;;;;5095258;28;19935;-84
2022/01/23 16:01:56;;;;;;;;;;;6.10;99.90;;;;;;5095006;28;19978;-85
2022/01/23 16:04:24;;;;;;;;;;;6.30;99.90;;;;;;5095213;28;19967;-84
2022/01/23 16:06:51;;;;;;;;;;;6.40;99.90;;;;;;5095424;28;20019;-85
2022/01/23 16:09:19;;;;;;;;;;;6.20;99.90;;;;;;5096134;28;21457;-85
2022/01/23 16:11:46;;;;;;;;;;;5.30;99.90;;;;;;5095225;28;19970;-84
2022/01/23 16:14:17;;;;;;;;;;;6.30;99.90;;;;;;5103616;28;19924;-84
2022/01/23 16:16:44;;;;;;;;;;;6.40;99.90;;;;;;5115719;28;19972;-85
2022/01/23 16:19:10;;;;;;;;;;;6.30;99.90;;;;;;5115508;28;19924;-85
2022/01/23 16:21:37;;;;;;;;;;;6.20;99.90;;;;;;5114923;28;19924;-85
2022/01/23 16:24:04;;;;;;;;;;;6.10;99.90;;;;;;5115345;28;19976;-84
2022/01/23 16:26:31;;;;;;;;;;;6.20;99.90;;;;;;5114938;28;20696;-86
2022/01/23 16:28:58;;;;;;;;;;;6.20;99.90;;;;;;5115570;28;19927;-86
2022/01/23 16:31:26;;;;;;;;;;;6.30;99.90;;;;;;5115697;28;19985;-84
2022/01/23 16:33:53;;;;;;;;;;;6.20;99.90;;;;;;5114919;28;19932;-84
2022/01/23 16:36:20;;;;;;;;;;;6.10;99.90;;;;;;5115253;28;19973;-84
2022/01/23 16:38:47;;;;;;;;;;;5.90;99.90;;;;;;5115078;28;19924;-84
2022/01/23 16:41:14;;;;;;;;;;;5.50;99.90;;;;;;5115177;28;19927;-86
2022/01/23 16:43:41;;;;;;;;;;;6.00;99.90;;;;;;5115255;28;20435;-85
2022/01/23 16:46:08;;;;;;;;;;;6.20;99.90;;;;;;5115660;28;20015;-84
2022/01/23 16:48:36;;;;;;;;;;;6.00;99.90;;;;;;5115123;28;19923;-84
2022/01/23 16:51:05;;;;;;;;;;;6.10;99.90;;;;;;5114577;28;19969;-85
2022/01/23 16:53:32;;;;;;;;;;;6.10;99.90;;;;;;5114992;28;19992;-84
2022/01/23 16:55:59;;;;;;;;;;;6.10;99.90;;;;;;5114727;28;19923;-84
2022/01/23 16:58:26;;;;;;;;;;;6.00;99.90;;;;;;5114322;28;19928;-85
2022/01/23 17:00:54;;;;;;;;;;;6.00;99.90;;;;;;5114629;28;19959;-85
2022/01/23 17:03:21;;;;;;;;;;;5.90;99.90;;;;;;5114209;28;19923;-84
2022/01/23 17:05:49;;;;;;;;;;;5.80;99.90;;;;;;5114260;28;19927;-84
2022/01/23 17:08:16;;;;;;;;;;;5.70;99.90;;;;;;5113880;28;19928;-86
2022/01/23 17:10:43;;;;;;;;;;;5.70;99.90;;;;;;5113796;28;19924;-86
2022/01/23 17:13:11;;;;;;;;;;;5.60;99.90;;;;;;5113823;28;20412;-85
2022/01/23 17:15:38;;;;;;;;;;;5.60;99.90;;;;;;5113842;28;19924;-85
2022/01/23 17:18:05;;;;;;;;;;;4.80;99.90;;;;;;5114371;28;19927;-86
2022/01/23 17:20:32;;;;;;;;;;;5.50;99.90;;;;;;5114164;28;19924;-85
2022/01/23 17:23:01;;;;;;;;;;;5.50;99.90;;;;;;5113950;28;19928;-86
2022/01/23 17:25:27;;;;;;;;;;;5.60;99.90;;;;;;5113783;28;20405;-86
2022/01/23 17:27:54;;;;;;;;;;;5.60;99.90;;;;;;5113574;28;19924;-86
2022/01/23 17:30:21;;;;;;;;;;;5.80;99.90;;;;;;5113969;28;19950;-86